Time;durP1;ratioP1;P1;durP2;ratioP2;P2;SDS_P1;SDS_P2;PMS_P1;PMS_P2;Temp;Humidity;BMP_temperature;BMP_pressure;BME280_temperature;BME280_humidity;BME280_pressure;Samples;Min_cycle;Max_cycle;Signal;HPM_P1;HPM_P2
2021/03/21 00:00:42;;;;;;;5.47;3.45;;;;;;;-1.17;56.43;98920.94;5051453;28;20036;-67
2021/03/21 00:03:08;;;;;;;6.90;4.30;;;;;;;-1.28;56.58;98908.28;5051130;28;20060;-71
2021/03/21 00:05:34;;;;;;;7.18;4.18;;;;;;;-1.24;56.56;98924.75;5051060;28;20033;-66
2021/03/21 00:08:04;;;;;;;6.55;4.03;;;;;;;-1.35;56.62;98930.50;5051490;28;20515;-70
2021/03/21 00:10:32;;;;;;;5.13;3.80;;;;;;;-1.41;57.10;98921.16;5051873;28;20040;-68
2021/03/21 00:12:59;;;;;;;6.65;4.30;;;;;;;-1.54;56.84;98891.13;5051428;28;20541;-70
2021/03/21 00:15:25;;;;;;;6.05;3.67;;;;;;;-1.70;57.16;98875.22;5050674;28;20041;-69
2021/03/21 00:17:51;;;;;;;8.23;4.03;;;;;;;-1.54;57.05;98904.25;5051349;28;20043;-66
2021/03/21 00:20:19;;;;;;;5.20;4.00;;;;;;;-1.58;57.53;98900.88;5051280;28;20071;-67
2021/03/21 00:22:45;;;;;;;6.60;3.92;;;;;;;-1.79;57.83;98869.47;5051771;28;20044;-71
2021/03/21 00:25:14;;;;;;;7.38;4.57;;;;;;;-1.85;57.82;98867.09;5033982;28;20043;-69
2021/03/21 00:27:41;;;;;;;10.02;5.15;;;;;;;-1.74;57.90;98900.72;5051403;28;20492;-68
2021/03/21 00:30:14;;;;;;;8.02;4.10;;;;;;;-1.91;59.24;98889.25;5051000;28;20032;-69
2021/03/21 00:32:40;;;;;;;8.05;4.70;;;;;;;-1.83;58.26;98920.38;5051200;28;20037;-71
2021/03/21 00:35:06;;;;;;;7.43;4.45;;;;;;;-1.96;58.75;98885.13;5050475;28;20036;-68
2021/03/21 00:37:32;;;;;;;8.25;5.30;;;;;;;-1.89;58.91;98904.91;5051528;28;20044;-68
2021/03/21 00:39:58;;;;;;;8.35;5.00;;;;;;;-2.10;58.48;98868.19;5048589;28;20453;-68
2021/03/21 00:42:23;;;;;;;8.35;4.90;;;;;;;-1.91;58.76;98897.13;5040041;28;20036;-68
2021/03/21 00:44:49;;;;;;;8.27;4.93;;;;;;;-2.00;59.17;98873.06;5071465;28;20044;-69
2021/03/21 00:47:14;;;;;;;6.93;4.22;;;;;;;-1.99;59.12;98893.13;5051545;28;20040;-67
2021/03/21 00:49:40;;;;;;;9.63;5.00;;;;;;;-2.07;58.85;98886.41;5050951;28;20087;-73
2021/03/21 00:52:05;;;;;;;11.20;5.40;;;;;;;-2.31;59.06;98859.50;5051653;28;20037;-68
2021/03/21 00:54:31;;;;;;;9.00;4.93;;;;;;;-2.21;58.86;98876.53;5051515;28;20037;-67
2021/03/21 00:56:56;;;;;;;8.63;5.28;;;;;;;-2.18;59.43;98881.63;5049799;28;20500;-68
2021/03/21 00:59:22;;;;;;;8.77;5.00;;;;;;;-2.61;59.64;98807.50;5050687;28;20427;-68
2021/03/21 01:01:47;;;;;;;8.35;5.20;;;;;;;-2.23;59.90;98870.50;5051439;28;20041;-68
2021/03/21 01:04:13;;;;;;;9.82;5.22;;;;;;;-2.23;59.43;98875.75;5049415;28;20029;-70
2021/03/21 01:06:39;;;;;;;9.48;5.28;;;;;;;-2.20;59.63;98869.53;5051184;28;20136;-68
2021/03/21 01:09:10;;;;;;;8.05;4.78;;;;;;;-2.35;59.73;98834.34;5050842;28;20037;-68
2021/03/21 01:11:38;;;;;;;10.38;5.47;;;;;;;-2.40;59.33;98841.56;5049728;28;20408;-67
2021/03/21 01:14:05;;;;;;;9.13;5.03;;;;;;;-2.37;59.72;98830.94;5049214;28;20141;-68
2021/03/21 01:16:35;;;;;;;9.85;4.97;;;;;;;-2.20;59.48;98853.81;5049497;28;20044;-69
2021/03/21 01:19:01;;;;;;;9.02;5.25;;;;;;;-2.40;59.31;98821.44;5050194;28;20068;-67
2021/03/21 01:21:30;;;;;;;8.90;5.00;;;;;;;-2.34;59.06;98833.44;5049452;28;20041;-69
2021/03/21 01:23:56;;;;;;;7.47;4.15;;;;;;;-2.43;59.16;98823.31;5048929;28;20064;-69
2021/03/21 01:26:24;;;;;;;7.45;4.43;;;;;;;-2.29;58.92;98844.56;5050490;28;20040;-67
2021/03/21 01:28:50;;;;;;;8.43;4.70;;;;;;;-2.31;58.69;98838.53;5049188;28;20037;-66
2021/03/21 01:31:18;;;;;;;6.55;4.43;;;;;;;-2.69;58.75;98775.50;5048762;28;20037;-69
2021/03/21 01:33:44;;;;;;;8.77;4.68;;;;;;;-2.50;58.54;98815.72;5050275;28;20107;-67
2021/03/21 01:36:13;;;;;;;7.82;4.85;;;;;;;-2.90;58.77;98737.09;5062550;28;20449;-68
2021/03/21 01:38:39;;;;;;;10.65;4.32;;;;;;;-2.33;58.40;98819.41;5049766;28;20075;-68
2021/03/21 01:41:16;;;;;;;7.10;4.28;;;;;;;-2.31;58.08;98822.81;5049528;28;20496;-67
2021/03/21 01:43:42;;;;;;;6.00;3.83;;;;;;;-2.34;57.52;98799.34;5066163;28;20103;-70
2021/03/21 01:46:14;;;;;;;8.52;4.45;;;;;;;-2.42;57.86;98780.47;5052433;28;20143;-68
2021/03/21 01:48:52;;;;;;;6.65;3.63;;;;;;;-2.28;57.48;98796.44;5064584;28;20045;-68
2021/03/21 01:51:25;;;;;;;8.98;4.50;;;;;;;-2.15;57.54;98804.63;5049744;28;20033;-68
2021/03/21 01:53:58;;;;;;;7.97;4.40;;;;;;;-2.26;56.94;98773.63;5048920;28;20049;-68
2021/03/21 01:56:26;;;;;;;6.95;3.83;;;;;;;-2.12;56.53;98785.28;5050595;28;20041;-69
2021/03/21 01:59:11;;;;;;;6.60;3.33;;;;;;;-2.19;56.01;98780.28;5050154;28;20033;-66
2021/03/21 02:01:37;;;;;;;5.50;3.25;;;;;;;-2.26;56.09;98757.91;5047455;28;20067;-67
2021/03/21 02:04:03;;;;;;;5.45;3.60;;;;;;;-2.13;55.70;98775.72;5048675;28;20044;-70
2021/03/21 02:06:34;;;;;;;4.97;3.28;;;;;;;-2.36;54.80;98743.50;5048943;28;20037;-68
2021/03/21 02:09:05;;;;;;;4.63;3.13;;;;;;;-2.05;54.75;98776.19;5048394;28;20087;-68
2021/03/21 02:11:51;;;;;;;5.07;2.67;;;;;;;-2.00;54.45;98783.88;5048331;28;20036;-68
2021/03/21 02:14:31;;;;;;;5.57;2.72;;;;;;;-1.99;53.89;98765.41;5048493;28;20033;-67
2021/03/21 02:17:24;;;;;;;6.57;2.90;;;;;;;-2.47;53.35;98687.16;5049856;28;20510;-68
2021/03/21 02:20:08;;;;;;;5.35;3.05;;;;;;;-1.98;53.78;98754.00;5036785;28;20053;-68
2021/03/21 02:22:56;;;;;;;3.90;2.45;;;;;;;-2.03;53.38;98769.13;5049955;28;20156;-69
2021/03/21 02:25:39;;;;;;;3.60;2.55;;;;;;;-2.04;52.52;98735.94;5049421;28;20496;-67
2021/03/21 02:28:29;;;;;;;4.22;3.03;;;;;;;-1.96;52.81;98761.81;5031896;28;20043;-68
2021/03/21 02:31:01;;;;;;;5.97;2.60;;;;;;;-2.02;52.22;98745.44;5048193;28;20377;-69
2021/03/21 02:33:34;;;;;;;3.95;2.50;;;;;;;-2.18;52.51;98723.47;5049987;28;20515;-68
2021/03/21 02:36:10;;;;;;;4.50;2.72;;;;;;;-2.14;52.64;98746.00;5050233;28;20037;-68
2021/03/21 02:38:43;;;;;;;;;;;;;;;-2.08;52.89;98737.84;5047241;28;20029;-69
2021/03/21 02:41:16;;;;;;;5.70;2.92;;;;;;;-2.22;52.56;98758.63;5048501;28;19927;-69
2021/03/21 02:43:58;;;;;;;6.07;3.13;;;;;;;-2.41;53.35;98722.75;5054509;28;20068;-67
2021/03/21 02:46:38;;;;;;;5.53;3.22;;;;;;;-2.41;53.72;98745.47;5052741;28;20033;-68
2021/03/21 02:49:42;;;;;;;5.18;2.88;;;;;;;-2.81;54.10;98674.72;5053359;28;20036;-70
2021/03/21 02:52:21;;;;;;;4.80;3.00;;;;;;;-2.55;54.23;98730.34;4994938;28;20047;-71
2021/03/21 02:54:59;;;;;;;5.38;3.00;;;;;;;-2.49;54.27;98736.19;5046748;28;20083;-69
2021/03/21 02:57:30;;;;;;;5.47;3.08;;;;;;;-2.46;53.87;98735.22;5052066;28;20033;-69
2021/03/21 02:59:59;;;;;;;5.00;3.05;;;;;;;-2.41;54.02;98727.97;5052745;28;20140;-71
2021/03/21 03:02:39;;;;;;;4.20;2.83;;;;;;;-2.94;54.55;98625.50;5053187;28;20064;-69
2021/03/21 03:05:30;;;;;;;5.38;2.70;;;;;;;-2.22;53.80;98721.91;5053149;28;20037;-68
2021/03/21 03:08:01;;;;;;;5.80;2.90;;;;;;;-2.11;53.43;98721.41;5052719;28;20053;-68
2021/03/21 03:10:34;;;;;;;5.75;2.88;;;;;;;-2.04;53.30;98720.19;5053026;28;20091;-68
2021/03/21 03:13:23;;;;;;;5.53;2.67;;;;;;;-1.92;53.56;98729.28;5052951;28;20539;-69
2021/03/21 03:15:54;;;;;;;5.35;3.00;;;;;;;-1.93;53.38;98707.44;5053324;28;20488;-66
2021/03/21 03:18:32;;;;;;;3.47;2.53;;;;;;;-1.82;53.27;98713.94;5084119;28;20520;-69
2021/03/21 03:21:29;;;;;;;4.18;2.72;;;;;;;-1.77;53.22;98696.19;5051408;28;20087;-68
2021/03/21 03:24:06;;;;;;;4.78;3.30;;;;;;;-1.68;52.97;98695.78;5025154;28;20122;-68
2021/03/21 03:26:49;;;;;;;4.05;2.58;;;;;;;-1.61;53.51;98691.91;5032988;28;20060;-69
2021/03/21 03:29:22;;;;;;;5.07;2.92;;;;;;;-1.80;53.18;98654.38;5051157;28;20106;-67
2021/03/21 03:31:56;;;;;;;5.80;2.90;;;;;;;-1.73;53.69;98667.13;5051064;28;20029;-67
2021/03/21 03:34:23;;;;;;;4.10;2.90;;;;;;;-1.49;52.93;98679.09;5051510;28;20037;-66
2021/03/21 03:36:48;;;;;;;6.40;3.03;;;;;;;-1.42;53.04;98688.38;5052964;28;20087;-66
2021/03/21 03:39:14;;;;;;;5.13;2.90;;;;;;;-1.55;53.09;98666.28;5051978;28;20032;-67
2021/03/21 03:41:48;;;;;;;4.30;3.00;;;;;;;-1.51;53.33;98680.94;5051986;28;20477;-67
2021/03/21 03:44:28;;;;;;;6.15;3.17;;;;;;;-1.40;53.54;98691.78;5053094;28;20037;-68
2021/03/21 03:47:40;;;;;;;4.88;3.00;;;;;;;-1.45;53.94;98672.75;5052524;28;20376;-66
2021/03/21 03:50:47;;;;;;;5.68;3.03;;;;;;;-1.37;54.18;98673.25;5031100;28;20045;-69
2021/03/21 03:53:43;;;;;;;5.25;2.58;;;;;;;-1.31;54.08;98670.31;5031924;28;20493;-68
2021/03/21 03:56:14;;;;;;;5.45;2.90;;;;;;;-1.21;52.76;98661.94;5052051;28;20074;-68
2021/03/21 03:59:04;;;;;;;4.97;2.95;;;;;;;-1.02;53.31;98660.09;5049803;28;20572;-67
2021/03/21 04:01:36;;;;;;;4.82;2.53;;;;;;;-0.69;52.12;98657.56;5064909;28;20041;-67
2021/03/21 04:04:16;;;;;;;5.97;2.88;;;;;;;-0.32;50.89;98660.81;5051790;28;20036;-69
2021/03/21 04:07:04;;;;;;;3.97;2.65;;;;;;;-0.23;50.26;98617.38;5051780;28;20121;-70
2021/03/21 04:09:57;;;;;;;3.55;2.75;;;;;;;0.02;49.80;98610.75;5052140;28;20047;-70
2021/03/21 04:12:36;;;;;;;5.50;2.63;;;;;;;0.32;49.04;98634.47;5049452;28;20041;-69
2021/03/21 04:15:09;;;;;;;6.13;2.88;;;;;;;0.38;48.49;98628.84;5050717;28;20128;-69
2021/03/21 04:17:42;;;;;;;4.78;2.70;;;;;;;0.63;47.90;98619.50;5052085;28;20047;-71
2021/03/21 04:20:14;;;;;;;4.65;3.20;;;;;;;1.38;47.15;98633.50;5051361;28;20053;-71
2021/03/21 04:23:19;;;;;;;3.60;2.67;;;;;;;2.14;45.02;98619.00;5051502;28;20119;-68
2021/03/21 04:25:51;;;;;;;4.07;3.00;;;;;;;2.31;44.56;98606.50;5051613;28;20396;-68
2021/03/21 04:28:22;;;;;;;4.70;2.92;;;;;;;2.27;44.57;98613.75;5050971;28;20041;-70
2021/03/21 04:30:56;;;;;;;5.07;2.75;;;;;;;2.13;44.47;98603.28;5050840;28;20075;-69
2021/03/21 04:33:34;;;;;;;5.70;3.10;;;;;;;2.03;44.97;98607.44;5049664;28;20124;-69
2021/03/21 04:36:25;;;;;;;4.25;3.00;;;;;;;2.07;45.11;98591.31;5051560;28;20055;-69
2021/03/21 04:39:20;;;;;;;5.20;3.10;;;;;;;2.10;44.47;98562.06;5050388;28;20049;-67
2021/03/21 04:42:06;;;;;;;3.80;2.75;;;;;;;2.54;44.09;98598.81;5050845;28;20164;-68
2021/03/21 04:44:37;;;;;;;3.80;2.58;;;;;;;2.52;43.88;98571.66;5050766;28;20040;-69
2021/03/21 04:47:19;;;;;;;4.22;2.67;;;;;;;2.81;43.16;98587.31;5050006;28;20095;-69
2021/03/21 04:49:44;;;;;;;6.05;3.13;;;;;;;2.78;43.21;98556.69;5050887;28;20071;-68
2021/03/21 04:52:28;;;;;;;4.40;2.45;;;;;;;3.27;42.98;98586.78;5051356;28;20033;-67
2021/03/21 04:54:56;;;;;;;4.18;2.67;;;;;;;2.89;42.47;98495.09;5050790;28;20036;-68
2021/03/21 04:57:31;;;;;;;4.38;2.78;;;;;;;3.66;42.04;98577.91;5050926;28;20417;-65
2021/03/21 04:59:57;;;;;;;4.50;2.92;;;;;;;3.72;41.92;98561.59;5051186;28;20041;-67
2021/03/21 05:02:27;;;;;;;3.78;2.88;;;;;;;3.99;41.57;98574.63;5051115;28;20492;-64
2021/03/21 05:04:59;;;;;;;4.43;3.00;;;;;;;4.14;41.28;98588.53;5049517;28;20029;-66
2021/03/21 05:07:47;;;;;;;4.78;3.45;;;;;;;4.29;41.16;98570.66;5050952;28;20097;-71
2021/03/21 05:10:21;;;;;;;16.65;3.20;;;;;;;4.27;40.25;98545.22;5050297;28;20051;-71
2021/03/21 05:13:03;;;;;;;4.15;2.83;;;;;;;4.34;39.97;98557.06;5050853;28;20040;-71
2021/03/21 05:15:31;;;;;;;4.47;2.85;;;;;;;4.62;40.13;98554.97;5050582;28;20083;-73
2021/03/21 05:18:24;;;;;;;3.67;2.78;;;;;;;5.15;39.15;98541.13;5050671;28;20040;-70
2021/03/21 05:21:13;;;;;;;3.55;2.80;;;;;;;5.68;38.18;98560.88;5047627;28;20057;-69
2021/03/21 05:23:49;;;;;;;5.30;2.78;;;;;;;5.97;36.57;98562.09;5047203;28;20053;-69
2021/03/21 05:26:21;;;;;;;7.88;2.95;;;;;;;6.55;36.44;98544.97;5049967;28;20033;-70
2021/03/21 05:28:56;;;;;;;5.93;2.90;;;;;;;6.58;35.14;98480.91;5050770;28;20118;-69
2021/03/21 05:31:23;;;;;;;4.28;3.00;;;;;;;6.92;35.21;98530.34;5050788;28;20048;-71
2021/03/21 05:33:49;;;;;;;4.70;2.60;;;;;;;6.79;34.86;98527.91;5049007;28;20538;-72
2021/03/21 05:36:17;;;;;;;5.82;2.60;;;;;;;6.74;34.83;98536.28;5059821;28;20029;-71
2021/03/21 05:39:10;;;;;;;4.22;2.95;;;;;;;6.61;34.54;98536.47;5048570;28;20040;-68
2021/03/21 05:42:00;;;;;;;5.32;3.35;;;;;;;7.78;33.12;98543.25;5040882;28;20047;-70
2021/03/21 05:44:52;;;;;;;4.70;3.42;;;;;;;9.09;31.42;98531.34;5048749;28;20070;-68
2021/03/21 05:47:42;;;;;;;7.15;3.03;;;;;;;10.94;28.84;98516.75;5045307;28;20038;-71
2021/03/21 05:50:10;;;;;;;5.95;3.22;;;;;;;12.22;26.26;98522.22;5049910;28;20463;-68
2021/03/21 05:52:48;;;;;;;3.92;2.92;;;;;;;12.18;26.16;98521.72;5050114;28;20036;-71
2021/03/21 05:55:58;;;;;;;5.03;2.95;;;;;;;12.42;26.34;98509.28;5049668;28;20087;-70
2021/03/21 05:59:00;;;;;;;4.80;3.00;;;;;;;12.94;25.78;98507.22;5050047;28;20037;-72
2021/03/21 06:01:50;;;;;;;4.95;3.20;;;;;;;13.34;25.07;98498.19;5049368;28;20407;-65
2021/03/21 06:04:18;;;;;;;8.45;3.20;;;;;;;14.52;23.19;98494.56;5049717;28;20025;-68
2021/03/21 06:07:08;;;;;;;4.90;2.83;;;;;;;16.24;22.02;98486.41;5046936;28;20041;-66
2021/03/21 06:09:44;;;;;;;4.03;2.92;;;;;;;16.16;21.13;98495.50;5048652;28;20036;-64
2021/03/21 06:12:19;;;;;;;4.40;2.83;;;;;;;16.39;20.08;98483.63;5049110;28;20496;-69
2021/03/21 06:15:00;;;;;;;4.88;3.08;;;;;;;17.16;19.91;98477.56;5049422;28;20554;-70
2021/03/21 06:17:44;;;;;;;4.50;2.75;;;;;;;18.21;18.49;98474.56;5049656;28;20067;-69
2021/03/21 06:20:13;;;;;;;3.13;2.58;;;;;;;17.99;17.19;98318.72;5048036;28;20064;-70
2021/03/21 06:23:00;;;;;;;6.85;2.83;;;;;;;18.84;17.11;98466.22;5049524;28;20056;-70
2021/03/21 06:25:56;;;;;;;6.78;2.90;;;;;;;18.68;18.27;98460.19;5050018;28;20039;-65
2021/03/21 06:28:49;;;;;;;4.70;2.63;;;;;;;18.18;18.13;98457.91;5050213;28;20392;-67
2021/03/21 06:31:42;;;;;;;4.97;2.55;;;;;;;17.04;18.04;98442.97;5049273;28;20049;-72
2021/03/21 06:34:18;;;;;;;5.72;2.70;;;;;;;16.40;17.83;98382.69;5047509;28;20041;-71
2021/03/21 06:36:51;;;;;;;4.78;2.50;;;;;;;16.41;17.84;98443.78;5038394;28;20090;-72
2021/03/21 06:39:32;;;;;;;4.93;2.40;;;;;;;16.81;17.83;98439.66;5040375;28;20029;-67
2021/03/21 06:42:00;;;;;;;3.90;2.55;;;;;;;17.14;17.00;98423.66;5046674;28;20562;-65
2021/03/21 06:44:49;;;;;;;5.78;2.67;;;;;;;18.54;16.23;98413.28;5048694;28;20029;-65
2021/03/21 06:47:35;;;;;;;4.35;2.60;;;;;;;21.06;14.24;98399.63;5046799;28;20052;-65
2021/03/21 06:50:00;;;;;;;3.92;2.65;;;;;;;23.20;12.57;98408.19;5023029;28;20044;-67
2021/03/21 06:52:45;;;;;;;10.07;3.00;;;;;;;24.18;11.59;98402.94;5038400;28;20072;-64
2021/03/21 06:55:24;;;;;;;5.07;2.70;;;;;;;24.94;10.96;98398.88;5048660;28;20566;-67
2021/03/21 06:58:28;;;;;;;6.30;2.60;;;;;;;26.39;11.10;98394.94;5048037;28;20091;-68
2021/03/21 07:01:19;;;;;;;6.78;2.45;;;;;;;27.15;9.66;98381.94;5045237;28;20484;-71
2021/03/21 07:04:16;;;;;;;4.85;3.05;;;;;;;27.84;8.81;98389.25;5049128;28;20055;-65
2021/03/21 07:07:19;;;;;;;4.65;2.80;;;;;;;28.36;9.29;98379.13;5043490;28;20505;-67
2021/03/21 07:09:50;;;;;;;3.92;2.58;;;;;;;27.95;8.31;98385.44;5041162;28;20025;-65
2021/03/21 07:12:56;;;;;;;3.80;2.70;;;;;;;27.93;8.34;98384.88;5043701;28;20937;-67
2021/03/21 07:15:46;;;;;;;3.50;2.72;;;;;;;28.74;7.63;98376.00;4995993;28;20040;-67
2021/03/21 07:18:29;;;;;;;4.38;2.33;;;;;;;29.04;7.21;98366.03;5031254;28;20136;-71
2021/03/21 07:21:10;;;;;;;5.00;2.80;;;;;;;29.46;7.12;98361.19;5049058;28;20133;-68
2021/03/21 07:23:56;;;;;;;4.50;2.30;;;;;;;30.11;6.99;98351.88;5048029;28;20057;-65
2021/03/21 07:26:24;;;;;;;5.35;2.58;;;;;;;27.62;7.32;98346.38;5045963;28;20037;-69
2021/03/21 07:29:07;;;;;;;4.85;2.42;;;;;;;27.92;7.92;98331.78;5051898;28;20037;-67
2021/03/21 07:32:03;;;;;;;4.13;2.35;;;;;;;28.78;7.31;98330.28;5049415;28;20702;-67
2021/03/21 07:34:48;;;;;;;4.18;2.60;;;;;;;28.84;6.36;98348.50;5049721;28;20491;-66
2021/03/21 07:37:34;;;;;;;2.80;2.33;;;;;;;30.23;7.11;98318.38;5045587;28;20048;-67
2021/03/21 07:40:18;;;;;;;;;;;;;;;32.38;6.99;98316.00;5051413;28;20132;-65
2021/03/21 07:43:07;;;;;;;3.30;2.28;;;;;;;30.05;6.03;98322.69;5052146;28;19920;-67
2021/03/21 07:45:54;;;;;;;7.18;2.60;;;;;;;28.94;6.69;98331.09;5052800;28;20108;-66
2021/03/21 07:48:53;;;;;;;4.63;2.83;;;;;;;27.50;7.94;98325.41;5052031;28;20552;-65
2021/03/21 07:51:27;;;;;;;4.43;2.30;;;;;;;26.92;7.52;98317.28;5052535;28;20079;-69
2021/03/21 07:54:13;;;;;;;6.00;2.50;;;;;;;26.48;7.38;98313.75;5051714;28;20036;-66
2021/03/21 07:56:55;;;;;;;2.90;2.20;;;;;;;26.63;7.69;98312.19;5045796;28;20511;-67
2021/03/21 07:59:25;;;;;;;9.68;4.07;;;;;;;25.39;7.79;98317.50;5052065;28;20044;-66
2021/03/21 08:01:52;;;;;;;9.75;2.70;;;;;;;24.23;8.23;98302.66;5050539;28;20500;-67
2021/03/21 08:04:23;;;;;;;3.28;2.17;;;;;;;21.54;9.50;98310.00;5051291;28;20340;-67
2021/03/21 08:06:59;;;;;;;4.15;2.20;;;;;;;19.16;10.95;98301.72;5052213;28;20029;-67
2021/03/21 08:09:34;;;;;;;3.35;2.33;;;;;;;16.99;12.44;98312.09;5052485;28;20041;-67
2021/03/21 08:12:23;;;;;;;3.97;2.45;;;;;;;14.92;13.90;98311.13;5051943;28;20037;-66
2021/03/21 08:15:08;;;;;;;4.28;2.30;;;;;;;12.46;15.63;98252.97;5051164;28;20037;-68
2021/03/21 08:18:02;;;;;;;3.95;2.33;;;;;;;11.56;16.68;98285.16;5052013;28;20041;-68
2021/03/21 08:20:41;;;;;;;9.05;3.47;;;;;;;10.73;17.92;98279.72;5051570;28;20069;-67
2021/03/21 08:23:26;;;;;;;2.95;2.28;;;;;;;10.59;18.67;98302.59;5051497;28;20083;-67
2021/03/21 08:25:54;;;;;;;5.90;2.53;;;;;;;10.29;18.77;98298.56;5049539;28;20279;-67
2021/03/21 08:28:23;;;;;;;5.82;2.30;;;;;;;10.07;18.79;98279.41;5051804;28;20040;-68
2021/03/21 08:30:58;;;;;;;5.63;2.30;;;;;;;10.12;19.06;98295.00;5051733;28;20039;-67
2021/03/21 08:33:34;;;;;;;7.03;2.63;;;;;;;9.98;19.07;98310.59;5050550;28;20485;-66
2021/03/21 08:36:12;;;;;;;3.53;2.00;;;;;;;9.89;19.35;98287.50;5051623;28;20138;-64
2021/03/21 08:38:40;;;;;;;6.38;2.42;;;;;;;9.81;19.84;98290.13;5042723;28;20480;-66
2021/03/21 08:41:07;;;;;;;7.60;2.05;;;;;;;9.76;19.61;98283.41;5046937;28;20590;-64
2021/03/21 08:43:37;;;;;;;3.58;2.00;;;;;;;9.65;20.10;98288.19;5048692;28;20037;-65
2021/03/21 08:46:02;;;;;;;7.53;2.47;;;;;;;9.55;19.94;98273.06;5050455;28;20037;-67
2021/03/21 08:48:34;;;;;;;6.97;2.30;;;;;;;9.56;20.14;98266.72;5046065;28;20519;-66
2021/03/21 08:51:11;;;;;;;3.75;1.95;;;;;;;9.52;20.30;98283.22;5050073;28;20460;-59
2021/03/21 08:53:55;;;;;;;4.65;2.40;;;;;;;9.33;20.54;98272.56;5047772;28;20554;-67
2021/03/21 08:57:00;;;;;;;9.93;2.17;;;;;;;9.36;20.61;98270.59;5045507;28;20124;-65
2021/03/21 08:59:36;;;;;;;10.75;2.55;;;;;;;9.28;20.90;98268.69;5046119;28;20059;-65
2021/03/21 09:02:16;;;;;;;3.72;1.90;;;;;;;9.12;20.96;98264.88;5049321;28;20061;-66
2021/03/21 09:05:06;;;;;;;8.25;2.08;;;;;;;9.01;21.21;98265.97;5049528;28;20028;-64
2021/03/21 09:07:34;;;;;;;5.35;2.00;;;;;;;8.90;21.41;98260.81;5045358;28;20091;-67
2021/03/21 09:10:08;;;;;;;6.53;2.20;;;;;;;8.89;21.81;98256.47;5050511;28;20063;-58
2021/03/21 09:12:40;;;;;;;4.00;1.80;;;;;;;8.66;21.68;98254.25;5048366;28;20044;-69
2021/03/21 09:15:22;;;;;;;5.55;2.08;;;;;;;8.73;22.12;98274.03;5047976;28;20067;-61
2021/03/21 09:18:11;;;;;;;6.03;2.00;;;;;;;8.77;22.44;98282.56;5049452;28;20041;-68
2021/03/21 09:20:38;;;;;;;6.65;2.33;;;;;;;8.56;22.28;98262.34;5050248;28;20497;-67
2021/03/21 09:23:49;;;;;;;4.75;1.77;;;;;;;7.98;22.52;98194.97;5045151;28;20425;-66
2021/03/21 09:26:14;;;;;;;5.68;2.30;;;;;;;8.29;22.67;98257.81;5039052;28;20073;-66
2021/03/21 09:28:44;;;;;;;4.75;1.92;;;;;;;8.26;23.02;98258.94;5049529;28;20080;-65
2021/03/21 09:31:12;;;;;;;6.53;1.67;;;;;;;8.01;23.23;98249.81;5050131;28;20125;-63
2021/03/21 09:33:45;;;;;;;5.85;2.20;;;;;;;8.12;23.35;98259.44;5050257;28;20036;-69
2021/03/21 09:36:42;;;;;;;6.63;3.25;;;;;;;8.11;23.74;98252.44;5049908;28;20175;-66
2021/03/21 09:39:19;;;;;;;5.53;2.25;;;;;;;7.94;23.90;98222.91;5048932;28;20048;-57
2021/03/21 09:41:49;;;;;;;4.88;1.77;;;;;;;8.09;23.66;98241.09;5045651;28;20024;-67
2021/03/21 09:44:37;;;;;;;6.47;2.15;;;;;;;7.69;23.93;98173.75;5047317;28;20044;-63
2021/03/21 09:47:21;;;;;;;4.43;1.52;;;;;;;7.99;23.62;98243.78;5047563;28;20028;-63
2021/03/21 09:50:01;;;;;;;4.05;1.90;;;;;;;7.85;24.03;98242.44;5047459;28;20033;-64
2021/03/21 09:52:42;;;;;;;3.47;1.65;;;;;;;7.76;24.32;98236.16;5047986;28;20067;-65
2021/03/21 09:55:44;;;;;;;5.60;1.90;;;;;;;7.81;24.47;98233.88;5047822;28;20094;-69
2021/03/21 09:58:32;;;;;;;6.47;1.90;;;;;;;7.66;24.24;98214.88;5048023;28;20028;-65
2021/03/21 10:01:11;;;;;;;3.03;1.88;;;;;;;7.78;24.41;98247.50;5046806;28;20048;-67
2021/03/21 10:03:38;;;;;;;5.05;1.80;;;;;;;7.74;24.63;98251.44;5046327;28;20025;-66
2021/03/21 10:06:09;;;;;;;5.32;1.80;;;;;;;7.69;24.18;98251.00;5041734;28;20041;-66
2021/03/21 10:09:11;;;;;;;3.65;1.70;;;;;;;7.61;24.55;98238.44;5046726;28;20459;-67
2021/03/21 10:11:38;;;;;;;3.42;1.55;;;;;;;7.53;24.50;98228.50;5042756;28;20063;-69
2021/03/21 10:14:29;;;;;;;5.55;1.50;;;;;;;7.49;24.85;98223.59;5049088;28;20037;-66
2021/03/21 10:16:56;;;;;;;5.93;1.90;;;;;;;7.44;24.97;98232.00;5049715;28;20032;-65
2021/03/21 10:19:40;;;;;;;4.43;2.40;;;;;;;7.64;25.31;98210.66;5049429;28;20249;-65
2021/03/21 10:22:17;;;;;;;3.75;1.85;;;;;;;7.86;24.73;98204.97;5046832;28;20053;-65
2021/03/21 10:25:00;;;;;;;3.20;1.65;;;;;;;7.87;24.60;98221.81;5049545;28;20358;-66
2021/03/21 10:27:29;;;;;;;4.00;2.40;;;;;;;7.81;24.81;98212.56;5048202;28;20036;-64
2021/03/21 10:30:06;;;;;;;2.80;1.65;;;;;;;7.79;24.79;98206.56;5057760;28;20033;-64
2021/03/21 10:32:33;;;;;;;3.05;1.70;;;;;;;7.72;24.67;98218.78;5052814;28;20037;-71
2021/03/21 10:35:00;;;;;;;7.70;1.83;;;;;;;7.59;25.23;98185.31;5040501;28;20045;-67
2021/03/21 10:37:41;;;;;;;3.13;1.67;;;;;;;7.84;24.77;98201.63;5059220;28;20036;-69
2021/03/21 10:40:34;;;;;;;3.08;1.92;;;;;;;7.82;24.86;98197.41;5050086;28;20036;-69
2021/03/21 10:43:05;;;;;;;4.88;1.90;;;;;;;7.97;24.63;98201.28;5047084;28;20037;-70
2021/03/21 10:45:33;;;;;;;3.95;1.80;;;;;;;8.14;24.27;98202.31;5048392;28;20049;-71
2021/03/21 10:48:07;;;;;;;5.97;2.33;;;;;;;8.23;24.12;98205.09;5042774;28;20045;-64
2021/03/21 10:50:51;;;;;;;4.82;2.03;;;;;;;8.29;23.89;98193.81;5059081;28;20090;-61
2021/03/21 10:53:22;;;;;;;7.10;2.30;;;;;;;8.36;24.08;98189.56;5057587;28;20036;-62
2021/03/21 10:56:01;;;;;;;5.28;2.15;;;;;;;8.42;24.05;98191.63;5049568;28;20063;-68
2021/03/21 10:58:35;;;;;;;6.43;2.10;;;;;;;8.36;23.88;98194.88;5047907;28;20036;-66
2021/03/21 11:03:50;;;;;;;9.80;2.20;;;;;;;8.11;24.06;98167.97;5064379;28;20041;-64
2021/03/21 11:06:17;;;;;;;4.10;1.75;;;;;;;7.97;24.54;98185.28;5046370;28;20035;-63
2021/03/21 11:08:43;;;;;;;6.03;2.10;;;;;;;7.86;24.86;98185.50;5051958;28;20075;-65
2021/03/21 11:11:32;;;;;;;3.80;1.90;;;;;;;7.71;25.11;98195.75;5054026;28;20028;-65
2021/03/21 11:14:19;;;;;;;3.45;2.03;;;;;;;7.65;24.93;98185.69;5047708;28;20039;-65
2021/03/21 11:17:08;;;;;;;5.55;2.47;;;;;;;7.64;25.07;98187.53;5055587;28;20040;-69
2021/03/21 11:19:41;;;;;;;4.70;2.15;;;;;;;7.52;24.89;98181.56;5032082;28;20525;-58
2021/03/21 11:22:30;;;;;;;6.53;2.25;;;;;;;7.56;25.31;98188.25;5041416;28;20048;-66
2021/03/21 11:24:55;;;;;;;5.22;2.15;;;;;;;7.42;25.68;98168.25;5048094;28;20037;-65
2021/03/21 11:27:33;;;;;;;5.15;1.95;;;;;;;7.31;25.80;98131.16;5049529;28;20128;-65
2021/03/21 11:30:19;;;;;;;3.72;1.60;;;;;;;7.58;25.61;98172.13;5050371;28;20546;-64
2021/03/21 11:32:44;;;;;;;5.25;2.28;;;;;;;7.64;25.77;98187.53;5052612;28;20045;-62
2021/03/21 11:35:29;;;;;;;6.10;2.53;;;;;;;7.64;25.84;98179.56;5049370;28;20053;-67
2021/03/21 11:37:58;;;;;;;6.85;2.33;;;;;;;7.59;25.86;98177.31;5050683;28;20090;-67
2021/03/21 11:40:28;;;;;;;3.70;2.10;;;;;;;7.60;26.13;98172.84;5051461;28;20028;-63
2021/03/21 11:43:18;;;;;;;5.97;1.90;;;;;;;7.52;26.25;98175.38;5050172;28;20145;-66
2021/03/21 11:45:45;;;;;;;5.45;2.17;;;;;;;7.39;26.68;98167.69;5051965;28;20389;-66
2021/03/21 11:48:33;;;;;;;4.95;2.33;;;;;;;7.33;27.16;98167.31;5052888;28;20048;-66
2021/03/21 11:51:00;;;;;;;3.67;2.17;;;;;;;7.21;27.34;98168.44;5051005;28;20510;-65
2021/03/21 11:53:29;;;;;;;4.45;2.22;;;;;;;7.14;27.41;98170.00;5052993;28;20037;-66
2021/03/21 11:56:18;;;;;;;4.38;2.10;;;;;;;7.15;27.22;98172.53;5052141;28;20120;-64
2021/03/21 11:58:59;;;;;;;11.75;2.22;;;;;;;7.12;27.68;98174.63;5051998;28;20512;-66
2021/03/21 12:01:37;;;;;;;4.63;2.03;;;;;;;6.92;28.22;98157.84;5051943;28;20033;-66
2021/03/21 12:04:06;;;;;;;5.53;2.50;;;;;;;6.65;28.19;98159.41;5052758;28;20041;-66
2021/03/21 12:06:38;;;;;;;4.50;2.40;;;;;;;6.63;28.67;98164.88;5052124;28;20037;-65
2021/03/21 12:09:34;;;;;;;5.57;2.17;;;;;;;6.71;28.39;98177.47;5052622;28;20024;-65
2021/03/21 12:12:25;;;;;;;4.45;2.13;;;;;;;6.61;29.06;98180.13;5051322;28;20053;-65
2021/03/21 12:14:50;;;;;;;4.78;2.15;;;;;;;6.36;29.04;98161.06;5051955;28;20098;-66
2021/03/21 12:17:22;;;;;;;5.30;2.38;;;;;;;6.40;29.83;98177.59;5051940;28;20465;-64
2021/03/21 12:19:48;;;;;;;6.30;2.28;;;;;;;6.26;29.46;98168.16;5052384;28;20049;-64
2021/03/21 12:22:23;;;;;;;8.02;3.65;;;;;;;6.24;29.85;98159.50;5051819;28;20138;-66
2021/03/21 12:25:18;;;;;;;9.55;5.10;;;;;;;6.30;29.90;98149.16;5051767;28;20485;-68
2021/03/21 12:27:45;;;;;;;6.90;3.15;;;;;;;6.43;29.66;98154.22;5051584;28;20044;-67
2021/03/21 12:30:30;;;;;;;14.35;6.32;;;;;;;6.63;29.91;98174.66;5052135;28;20515;-67